TimeCST,TemperatureF,Dew PointF,Humidity,Sea Level PressureIn,VisibilityMPH,Wind Direction,Wind SpeedMPH,Gust SpeedMPH,PrecipitationIn,Events,Conditions,WindDirDegrees,DateUTC
12:54 AM,21.9,8.1,55,30.09,10.0,SSE,9.2,-,N/A,,Clear,160,2014-01-30 06:54:00
1:54 AM,19.9,8.1,60,30.08,10.0,SSE,10.4,-,N/A,,Clear,160,2014-01-30 07:54:00
2:54 AM,19.0,9.0,65,30.06,10.0,SSE,9.2,-,N/A,,Clear,150,2014-01-30 08:54:00
3:54 AM,21.0,10.0,63,30.03,10.0,SSE,10.4,-,N/A,,Clear,160,2014-01-30 09:54:00
4:54 AM,23.0,10.0,58,30.01,10.0,South,10.4,-,N/A,,Clear,170,2014-01-30 10:54:00
5:54 AM,24.1,10.9,57,30.01,10.0,SSE,9.2,-,N/A,,Clear,150,2014-01-30 11:54:00
6:54 AM,26.1,10.9,53,29.96,10.0,SSE,13.8,-,N/A,,Clear,160,2014-01-30 12:54:00
7:54 AM,27.0,10.9,51,29.94,10.0,South,13.8,-,N/A,,Clear,170,2014-01-30 13:54:00
8:54 AM,30.0,10.9,45,29.91,10.0,South,13.8,-,N/A,,Clear,180,2014-01-30 14:54:00
9:54 AM,34.0,10.0,37,29.89,10.0,South,16.1,-,N/A,,Clear,180,2014-01-30 15:54:00
10:54 AM,39.9,8.1,27,29.85,10.0,South,24.2,29.9,N/A,,Clear,180,2014-01-30 16:54:00
11:54 AM,42.1,6.1,23,29.83,10.0,SSW,24.2,-,N/A,,Clear,200,2014-01-30 17:54:00
12:54 PM,42.1,6.1,23,29.78,10.0,South,19.6,-,N/A,,Clear,190,2014-01-30 18:54:00
1:54 PM,45.0,8.1,22,29.77,10.0,SSW,24.2,32.2,N/A,,Clear,210,2014-01-30 19:54:00
2:54 PM,45.0,10.9,25,29.80,10.0,SW,25.3,32.2,N/A,,Clear,230,2014-01-30 20:54:00
3:54 PM,45.0,12.0,26,29.83,10.0,SW,15.0,23.0,N/A,,Overcast,220,2014-01-30 21:54:00
4:54 PM,43.0,12.9,30,29.85,10.0,SSW,9.2,-,N/A,,Overcast,210,2014-01-30 22:54:00
5:54 PM,42.1,12.9,31,29.87,10.0,SSW,10.4,-,N/A,,Overcast,200,2014-01-30 23:54:00
6:54 PM,39.9,14.0,35,29.90,10.0,SSW,8.1,-,N/A,,Overcast,200,2014-01-31 00:54:00
7:54 PM,39.0,15.1,38,29.91,10.0,Calm,Calm,-,N/A,,Overcast,0,2014-01-31 01:54:00
8:54 PM,37.9,14.0,38,29.95,10.0,SSW,9.2,-,N/A,,Overcast,200,2014-01-31 02:54:00
9:54 PM,36.0,15.1,43,29.96,10.0,ESE,5.8,-,N/A,,Overcast,120,2014-01-31 03:54:00
10:54 PM,35.1,16.0,46,29.96,10.0,Calm,Calm,-,N/A,,Overcast,0,2014-01-31 04:54:00
11:54 PM,32.0,19.9,61,29.95,10.0,NNE,4.6,-,N/A,,Scattered Clouds,30,2014-01-31 05:54:00